Time;durP1;ratioP1;P1;durP2;ratioP2;P2;SDS_P1;SDS_P2;PMS_P1;PMS_P2;Temp;Humidity;BMP_temperature;BMP_pressure;BME280_temperature;BME280_humidity;BME280_pressure;Samples;Min_cycle;Max_cycle;Signal;HPM_P1;HPM_P2
2022/07/26 00:01:49;;;;;;;2.08;1.98;;;;;;;;;;5025944;28;20218;-84
2022/07/26 00:04:16;;;;;;;3.22;2.05;;;;;;;;;;5033203;28;20616;-83
2022/07/26 00:06:43;;;;;;;2.95;2.00;;;;;;;;;;5026082;28;20198;-83
2022/07/26 00:09:11;;;;;;;2.13;1.85;;;;;;;;;;5030129;28;20233;-84
2022/07/26 00:11:38;;;;;;;2.17;1.80;;;;;;;;;;5021575;28;20275;-83
2022/07/26 00:14:07;;;;;;;2.15;1.90;;;;;;;;;;5019361;28;20260;-83
2022/07/26 00:16:35;;;;;;;4.43;2.03;;;;;;;;;;5021154;28;20217;-83
2022/07/26 00:19:04;;;;;;;2.25;1.75;;;;;;;;;;5022458;28;20191;-83
2022/07/26 00:21:31;;;;;;;2.85;2.00;;;;;;;;;;5009364;28;20261;-83
2022/07/26 00:23:58;;;;;;;3.45;2.13;;;;;;;;;;5028280;28;20209;-83
2022/07/26 00:26:26;;;;;;;2.60;1.73;;;;;;;;;;5014159;28;20277;-83
2022/07/26 00:28:53;;;;;;;2.08;1.88;;;;;;;;;;5015001;28;20261;-82
2022/07/26 00:31:20;;;;;;;2.00;1.90;;;;;;;;;;5013856;28;20206;-84
2022/07/26 00:33:47;;;;;;;1.98;1.80;;;;;;;;;;5017062;28;20273;-84
2022/07/26 00:36:16;;;;;;;2.88;2.00;;;;;;;;;;5022446;28;20194;-83
2022/07/26 00:38:46;;;;;;;2.10;1.90;;;;;;;;;;5014311;28;20230;-83
2022/07/26 00:41:13;;;;;;;1.88;1.73;;;;;;;;;;5014763;28;20215;-84
2022/07/26 00:43:55;;;;;;;3.15;2.00;;;;;;;;;;5017904;28;20199;-84
2022/07/26 00:46:37;;;;;;;2.80;1.80;;;;;;;;;;5014674;28;20268;-83
2022/07/26 00:49:05;;;;;;;3.25;1.90;;;;;;;;;;5022851;28;20198;-84
2022/07/26 00:51:36;;;;;;;1.80;1.70;;;;;;;;;;5022603;28;20720;-83
2022/07/26 00:54:03;;;;;;;2.20;2.00;;;;;;;;;;5028441;28;20216;-83
2022/07/26 00:56:31;;;;;;;1.83;1.67;;;;;;;;;;5020477;28;20213;-83
2022/07/26 00:58:58;;;;;;;1.50;1.40;;;;;;;;;;5029652;28;20205;-83
2022/07/26 01:01:26;;;;;;;1.75;1.48;;;;;;;;;;5025770;28;20317;-83
2022/07/26 01:03:54;;;;;;;2.40;1.33;;;;;;;;;;5013649;28;20206;-83
2022/07/26 01:06:22;;;;;;;2.08;1.40;;;;;;;;;;5017303;28;20310;-83
2022/07/26 01:08:50;;;;;;;2.17;1.40;;;;;;;;;;5024339;28;20229;-84
2022/07/26 01:11:18;;;;;;;1.85;1.55;;;;;;;;;;5013067;28;20205;-84
2022/07/26 01:13:48;;;;;;;2.08;1.45;;;;;;;;;;5013044;28;20206;-84
2022/07/26 01:16:15;;;;;;;1.52;1.40;;;;;;;;;;5013225;28;20210;-84
2022/07/26 01:18:42;;;;;;;2.35;1.35;;;;;;;;;;5019466;28;20207;-84
2022/07/26 01:21:11;;;;;;;3.00;1.33;;;;;;;;;;5013195;28;20283;-83
2022/07/26 01:23:40;;;;;;;1.38;1.23;;;;;;;;;;5013113;28;20210;-83
2022/07/26 01:26:07;;;;;;;1.55;1.45;;;;;;;;;;5028341;28;20206;-84
2022/07/26 01:28:36;;;;;;;1.55;1.17;;;;;;;;;;5026943;28;20297;-83
2022/07/26 01:31:04;;;;;;;2.10;1.30;;;;;;;;;;5029043;28;20229;-83
2022/07/26 01:33:31;;;;;;;2.03;1.40;;;;;;;;;;5025544;28;20237;-83
2022/07/26 01:35:59;;;;;;;1.42;1.33;;;;;;;;;;5013920;28;20202;-83
2022/07/26 01:38:26;;;;;;;1.73;1.55;;;;;;;;;;5031538;28;20210;-83
2022/07/26 01:40:55;;;;;;;1.38;1.17;;;;;;;;;;5013533;28;20257;-84
2022/07/26 01:43:22;;;;;;;1.60;1.40;;;;;;;;;;5027867;28;20638;-83
2022/07/26 01:45:50;;;;;;;2.45;1.40;;;;;;;;;;5022513;28;20226;-84
2022/07/26 01:48:17;;;;;;;1.40;1.30;;;;;;;;;;5012925;28;20276;-84
2022/07/26 01:50:44;;;;;;;1.70;1.30;;;;;;;;;;5019639;28;20202;-83
2022/07/26 01:53:12;;;;;;;1.45;1.30;;;;;;;;;;5012904;28;20218;-84
2022/07/26 01:55:39;;;;;;;1.40;1.30;;;;;;;;;;5029946;28;20277;-84
2022/07/26 01:58:08;;;;;;;1.63;1.52;;;;;;;;;;5006825;28;20682;-84
2022/07/26 02:00:35;;;;;;;1.83;1.50;;;;;;;;;;5012267;28;20230;-83
2022/07/26 02:03:02;;;;;;;1.65;1.10;;;;;;;;;;5011844;28;20261;-83
2022/07/26 02:05:29;;;;;;;1.73;1.23;;;;;;;;;;5031326;28;20213;-84
2022/07/26 02:07:57;;;;;;;1.38;1.27;;;;;;;;;;5024687;28;20226;-84
2022/07/26 02:10:59;;;;;;;1.33;1.23;;;;;;;;;;5031456;28;20700;-83
2022/07/26 02:13:13;;;;;;;1.38;1.27;;;;;;;;;;5014947;28;20463;-83
2022/07/26 02:15:40;;;;;;;1.65;1.40;;;;;;;;;;5012956;28;20230;-84
2022/07/26 02:18:07;;;;;;;1.35;1.30;;;;;;;;;;5021216;28;20221;-83
2022/07/26 02:20:35;;;;;;;1.30;1.08;;;;;;;;;;5021677;28;20229;-83
2022/07/26 02:23:02;;;;;;;1.52;1.35;;;;;;;;;;5030711;28;20229;-83
2022/07/26 02:25:30;;;;;;;2.42;1.10;;;;;;;;;;5026247;28;20237;-84
2022/07/26 02:27:57;;;;;;;2.00;1.38;;;;;;;;;;5027704;28;20242;-83
2022/07/26 02:30:26;;;;;;;3.22;1.60;;;;;;;;;;5031631;28;20297;-83
2022/07/26 02:32:53;;;;;;;1.30;1.20;;;;;;;;;;5031562;28;20230;-84
2022/07/26 02:35:21;;;;;;;1.50;1.20;;;;;;;;;;5014963;28;20202;-84
2022/07/26 02:37:48;;;;;;;2.20;1.20;;;;;;;;;;5016529;28;20202;-84
2022/07/26 02:40:15;;;;;;;1.75;1.30;;;;;;;;;;5031428;28;20259;-83
2022/07/26 02:42:43;;;;;;;1.35;1.20;;;;;;;;;;5029320;28;20225;-83
2022/07/26 02:45:10;;;;;;;1.50;1.40;;;;;;;;;;5021737;28;20206;-83
2022/07/26 02:47:47;;;;;;;1.70;1.50;;;;;;;;;;5017861;28;20207;-83
2022/07/26 02:50:17;;;;;;;1.38;1.20;;;;;;;;;;5021500;28;20230;-83
2022/07/26 02:52:45;;;;;;;1.77;1.40;;;;;;;;;;5015878;28;20232;-84
2022/07/26 02:55:13;;;;;;;1.48;1.20;;;;;;;;;;5015915;28;20214;-83
2022/07/26 02:57:40;;;;;;;2.50;1.27;;;;;;;;;;5022160;28;20210;-83
2022/07/26 03:00:08;;;;;;;1.48;1.10;;;;;;;;;;5015643;28;20199;-84
2022/07/26 03:02:35;;;;;;;1.35;1.20;;;;;;;;;;5021893;28;20226;-83
2022/07/26 03:05:04;;;;;;;1.40;1.30;;;;;;;;;;5031555;28;20210;-84
2022/07/26 03:07:32;;;;;;;1.48;1.30;;;;;;;;;;5024847;28;20240;-83
2022/07/26 03:09:59;;;;;;;1.50;1.40;;;;;;;;;;5034361;28;20297;-86
2022/07/26 03:12:26;;;;;;;1.77;1.30;;;;;;;;;;5024754;28;20228;-85
2022/07/26 03:14:54;;;;;;;1.40;1.30;;;;;;;;;;5020376;28;20237;-85
2022/07/26 03:17:21;;;;;;;1.20;1.10;;;;;;;;;;5024351;28;20202;-86
2022/07/26 03:19:48;;;;;;;1.58;1.48;;;;;;;;;;5032406;28;20206;-86
2022/07/26 03:22:17;;;;;;;1.52;1.25;;;;;;;;;;5030260;28;20283;-86
2022/07/26 03:24:44;;;;;;;1.50;1.40;;;;;;;;;;5024517;28;20237;-86
2022/07/26 03:27:12;;;;;;;1.38;1.27;;;;;;;;;;5027656;28;20260;-84
2022/07/26 03:29:39;;;;;;;1.40;1.30;;;;;;;;;;5036441;28;20213;-83
2022/07/26 03:32:07;;;;;;;1.30;1.20;;;;;;;;;;5018406;28;20288;-83
2022/07/26 03:34:35;;;;;;;1.20;1.10;;;;;;;;;;5019686;28;20206;-83
2022/07/26 03:37:02;;;;;;;1.95;1.50;;;;;;;;;;5016589;28;20253;-84
2022/07/26 03:39:31;;;;;;;2.05;1.50;;;;;;;;;;5024145;28;20248;-83
2022/07/26 03:41:58;;;;;;;3.15;1.40;;;;;;;;;;5025173;28;20311;-83
2022/07/26 03:44:25;;;;;;;1.30;1.20;;;;;;;;;;5015149;28;20297;-84
2022/07/26 03:46:53;;;;;;;1.50;1.40;;;;;;;;;;5027494;28;20198;-83
2022/07/26 03:49:20;;;;;;;1.88;1.23;;;;;;;;;;5029728;28;20202;-83
2022/07/26 03:51:47;;;;;;;1.33;1.20;;;;;;;;;;5011483;28;20230;-83
2022/07/26 03:54:18;;;;;;;1.30;1.20;;;;;;;;;;5022990;28;20272;-83
2022/07/26 03:56:46;;;;;;;1.77;1.30;;;;;;;;;;5031656;28;20241;-84
2022/07/26 03:59:13;;;;;;;1.48;1.38;;;;;;;;;;5014872;28;20207;-84
2022/07/26 04:01:41;;;;;;;2.08;1.40;;;;;;;;;;5029959;28;20237;-84
2022/07/26 04:04:09;;;;;;;1.48;1.38;;;;;;;;;;5018283;28;20199;-83
2022/07/26 04:06:36;;;;;;;1.33;1.23;;;;;;;;;;5016476;28;20206;-83
2022/07/26 04:09:03;;;;;;;2.05;1.30;;;;;;;;;;5015061;28;20214;-83
2022/07/26 04:11:31;;;;;;;1.48;1.25;;;;;;;;;;5022986;28;20248;-84
2022/07/26 04:14:00;;;;;;;1.60;1.50;;;;;;;;;;5023492;28;20275;-83
2022/07/26 04:16:27;;;;;;;2.30;1.42;;;;;;;;;;5018962;28;20580;-84
2022/07/26 04:18:55;;;;;;;1.40;1.30;;;;;;;;;;5017322;28;20253;-84
2022/07/26 04:21:22;;;;;;;1.38;1.27;;;;;;;;;;5017726;28;20222;-84
2022/07/26 04:23:49;;;;;;;1.60;1.20;;;;;;;;;;5017832;28;20647;-86
2022/07/26 04:26:17;;;;;;;1.65;1.30;;;;;;;;;;5021861;28;20305;-86
2022/07/26 04:28:44;;;;;;;1.77;1.30;;;;;;;;;;5018116;28;20658;-85
2022/07/26 04:31:13;;;;;;;1.70;1.33;;;;;;;;;;5013330;28;20610;-86
2022/07/26 04:33:40;;;;;;;1.98;1.60;;;;;;;;;;5015921;28;20206;-89
2022/07/26 04:36:07;;;;;;;1.30;1.20;;;;;;;;;;5008295;28;20205;-89
2022/07/26 04:38:35;;;;;;;1.50;1.40;;;;;;;;;;5013497;28;20297;-89
2022/07/26 04:41:02;;;;;;;1.58;1.35;;;;;;;;;;5027954;28;20288;-86
2022/07/26 04:43:29;;;;;;;2.15;1.60;;;;;;;;;;5032019;28;20229;-89
2022/07/26 04:46:02;;;;;;;1.67;1.58;;;;;;;;;;5021849;28;20567;-89
2022/07/26 04:48:31;;;;;;;2.92;1.60;;;;;;;;;;5014552;28;20215;-88
2022/07/26 04:51:00;;;;;;;2.75;1.65;;;;;;;;;;5016710;28;20190;-86
2022/07/26 04:53:27;;;;;;;1.85;1.50;;;;;;;;;;5021417;28;20228;-86
2022/07/26 04:55:55;;;;;;;2.95;1.70;;;;;;;;;;5016453;28;20245;-86
2022/07/26 04:58:22;;;;;;;2.33;1.73;;;;;;;;;;5011933;28;20202;-86
2022/07/26 05:00:49;;;;;;;1.83;1.58;;;;;;;;;;5012413;28;20199;-87
2022/07/26 05:03:17;;;;;;;2.05;1.63;;;;;;;;;;5012476;28;20305;-86
2022/07/26 05:05:45;;;;;;;2.92;1.90;;;;;;;;;;5012804;28;20202;-86
2022/07/26 05:08:18;;;;;;;4.00;2.08;;;;;;;;;;5019430;28;20213;-89
2022/07/26 05:10:47;;;;;;;5.57;2.65;;;;;;;;;;5013241;28;20218;-88
2022/07/26 05:13:15;;;;;;;7.95;3.00;;;;;;;;;;5017926;28;20250;-88
2022/07/26 05:15:44;;;;;;;7.15;3.38;;;;;;;;;;5012522;28;20202;-87
2022/07/26 05:18:11;;;;;;;10.02;3.03;;;;;;;;;;5020716;28;20209;-88
2022/07/26 05:20:40;;;;;;;7.78;2.60;;;;;;;;;;5003056;28;20267;-88
2022/07/26 05:23:15;;;;;;;7.15;2.80;;;;;;;;;;4993336;28;20234;-89
2022/07/26 05:25:42;;;;;;;5.20;2.30;;;;;;;;;;5011159;28;20217;-88
2022/07/26 05:28:10;;;;;;;6.63;2.35;;;;;;;;;;5012857;28;20253;-87
2022/07/26 05:31:17;;;;;;;5.82;3.17;;;;;;;;;;5011262;28;20213;-89
2022/07/26 05:36:44;;;;;;;9.65;3.47;;;;;;;;;;4994376;28;20203;-89
2022/07/26 05:39:15;;;;;;;4.72;2.85;;;;;;;;;;5000571;28;20222;-87
2022/07/26 05:41:43;;;;;;;7.70;2.90;;;;;;;;;;5012990;28;20234;-92
2022/07/26 05:44:10;;;;;;;4.38;2.45;;;;;;;;;;5010916;28;20230;-89
2022/07/26 05:46:40;;;;;;;5.85;2.58;;;;;;;;;;5006626;28;20265;-91
2022/07/26 05:49:10;;;;;;;4.00;2.40;;;;;;;;;;5016144;28;20214;-89
2022/07/26 05:51:38;;;;;;;5.40;2.30;;;;;;;;;;5013271;28;20219;-90
2022/07/26 05:54:10;;;;;;;4.18;2.40;;;;;;;;;;5008868;28;20198;-89
2022/07/26 05:56:39;;;;;;;4.03;2.40;;;;;;;;;;5013522;28;20202;-88
2022/07/26 05:59:06;;;;;;;3.65;2.03;;;;;;;;;;5011186;28;20293;-89
2022/07/26 06:01:34;;;;;;;4.63;2.20;;;;;;;;;;5012574;28;20227;-89
2022/07/26 06:04:05;;;;;;;3.00;2.15;;;;;;;;;;5012455;28;20239;-88
2022/07/26 06:06:33;;;;;;;2.78;2.22;;;;;;;;;;5014180;28;20198;-88
2022/07/26 06:09:00;;;;;;;2.28;2.10;;;;;;;;;;5013255;28;20199;-89
2022/07/26 06:11:27;;;;;;;3.47;2.25;;;;;;;;;;5018326;28;20206;-88
2022/07/26 06:13:58;;;;;;;2.72;2.10;;;;;;;;;;5022548;28;20236;-88
2022/07/26 06:16:26;;;;;;;3.00;1.95;;;;;;;;;;5022055;28;20217;-88
2022/07/26 06:18:53;;;;;;;1.80;1.60;;;;;;;;;;5015668;28;20206;-87
2022/07/26 06:21:23;;;;;;;3.97;1.90;;;;;;;;;;5015962;28;20206;-88
2022/07/26 06:23:51;;;;;;;3.30;1.83;;;;;;;;;;5019319;28;20214;-88
2022/07/26 06:26:18;;;;;;;2.10;1.90;;;;;;;;;;5020877;28;20214;-88
2022/07/26 06:28:49;;;;;;;2.22;1.60;;;;;;;;;;5016376;28;20559;-88
2022/07/26 06:31:18;;;;;;;2.03;1.40;;;;;;;;;;5016474;28;20246;-89
2022/07/26 06:33:51;;;;;;;2.35;1.70;;;;;;;;;;5016433;28;20214;-87
2022/07/26 06:36:18;;;;;;;2.10;1.58;;;;;;;;;;5020445;28;20217;-87
2022/07/26 06:38:46;;;;;;;3.33;1.65;;;;;;;;;;5035230;28;20209;-89
2022/07/26 06:41:17;;;;;;;2.50;1.67;;;;;;;;;;5035277;28;20316;-88
2022/07/26 06:43:44;;;;;;;2.75;1.75;;;;;;;;;;5034860;28;20206;-89
2022/07/26 06:46:12;;;;;;;2.72;1.33;;;;;;;;;;5023081;28;20288;-88
2022/07/26 06:48:44;;;;;;;1.60;1.45;;;;;;;;;;5015647;28;20237;-88
2022/07/26 06:51:13;;;;;;;1.30;1.13;;;;;;;;;;5033528;28;20220;-89
2022/07/26 06:53:50;;;;;;;3.28;1.25;;;;;;;;;;5022128;28;20214;-89
2022/07/26 06:56:18;;;;;;;3.55;1.42;;;;;;;;;;5022043;28;20259;-89
2022/07/26 06:58:45;;;;;;;1.65;1.55;;;;;;;;;;5034936;28;20584;-89
2022/07/26 07:01:13;;;;;;;2.22;1.40;;;;;;;;;;5029759;28;20233;-88
2022/07/26 07:03:40;;;;;;;1.63;1.10;;;;;;;;;;5034130;28;20276;-89
2022/07/26 07:06:10;;;;;;;1.67;1.10;;;;;;;;;;5023407;28;20233;-90
2022/07/26 07:08:38;;;;;;;1.73;1.10;;;;;;;;;;5016110;28;20234;-89
2022/07/26 07:11:05;;;;;;;1.83;1.20;;;;;;;;;;5016165;28;20210;-90
2022/07/26 07:13:33;;;;;;;1.75;1.27;;;;;;;;;;5022148;28;20257;-90
2022/07/26 07:16:00;;;;;;;1.83;1.02;;;;;;;;;;5022593;28;20213;-90
2022/07/26 07:18:30;;;;;;;2.20;1.33;;;;;;;;;;5034519;28;20219;-90
2022/07/26 07:20:57;;;;;;;1.90;1.20;;;;;;;;;;5033650;28;20206;-89
2022/07/26 07:23:26;;;;;;;3.25;1.20;;;;;;;;;;5034452;28;20229;-89
2022/07/26 07:25:53;;;;;;;2.03;1.25;;;;;;;;;;5036148;28;20236;-89
2022/07/26 07:28:23;;;;;;;2.78;1.20;;;;;;;;;;5024602;28;20210;-89
2022/07/26 07:30:51;;;;;;;1.15;1.00;;;;;;;;;;5028588;28;20217;-89
2022/07/26 07:33:18;;;;;;;1.88;1.00;;;;;;;;;;5021643;28;20226;-89
2022/07/26 07:35:45;;;;;;;1.48;1.15;;;;;;;;;;5015582;28;20229;-90
2022/07/26 07:38:15;;;;;;;2.35;1.13;;;;;;;;;;5034054;28;20209;-89
2022/07/26 07:40:46;;;;;;;4.18;1.20;;;;;;;;;;5034281;28;20216;-89
2022/07/26 07:43:13;;;;;;;1.40;1.20;;;;;;;;;;5008922;28;20313;-89
2022/07/26 07:45:41;;;;;;;2.92;1.20;;;;;;;;;;5026271;28;20215;-89
2022/07/26 07:48:08;;;;;;;1.85;1.60;;;;;;;;;;5033808;28;20217;-90
2022/07/26 07:50:38;;;;;;;1.45;1.10;;;;;;;;;;5023804;28;20214;-89
2022/07/26 07:53:07;;;;;;;2.15;1.10;;;;;;;;;;5009674;28;20230;-90
2022/07/26 07:55:34;;;;;;;1.17;1.08;;;;;;;;;;5014962;28;20210;-89
2022/07/26 07:58:03;;;;;;;4.68;1.48;;;;;;;;;;5015851;28;20214;-89
2022/07/26 08:00:30;;;;;;;2.38;1.17;;;;;;;;;;5008194;28;20233;-89
2022/07/26 08:03:04;;;;;;;2.30;1.10;;;;;;;;;;5008152;28;20261;-89
2022/07/26 08:05:31;;;;;;;2.40;1.10;;;;;;;;;;5019425;28;20240;-90
2022/07/26 08:08:02;;;;;;;1.67;1.17;;;;;;;;;;5023231;28;20232;-90
2022/07/26 08:10:29;;;;;;;2.38;1.30;;;;;;;;;;5015206;28;20241;-90
2022/07/26 08:12:56;;;;;;;2.92;1.23;;;;;;;;;;5021199;28;20300;-90
2022/07/26 08:15:26;;;;;;;1.80;0.88;;;;;;;;;;5015003;28;20245;-89
2022/07/26 08:17:56;;;;;;;0.88;0.88;;;;;;;;;;5036556;28;20259;-89
2022/07/26 08:20:23;;;;;;;1.30;1.20;;;;;;;;;;5024065;28;20225;-90
2022/07/26 08:22:53;;;;;;;4.32;1.20;;;;;;;;;;5027816;28;20313;-90
2022/07/26 08:25:21;;;;;;;1.98;1.00;;;;;;;;;;5028239;28;20209;-89
2022/07/26 08:27:51;;;;;;;1.33;1.00;;;;;;;;;;5034053;28;20297;-88
2022/07/26 08:30:19;;;;;;;2.85;1.00;;;;;;;;;;5026652;28;20215;-90
2022/07/26 08:32:49;;;;;;;2.20;1.17;;;;;;;;;;5032058;28;20226;-89
2022/07/26 08:35:20;;;;;;;3.17;1.10;;;;;;;;;;5016376;28;20210;-90
2022/07/26 08:37:55;;;;;;;2.75;1.20;;;;;;;;;;5033146;28;20233;-90
2022/07/26 08:40:23;;;;;;;3.53;1.20;;;;;;;;;;5033271;28;20241;-89
2022/07/26 08:42:51;;;;;;;0.98;0.88;;;;;;;;;;5026533;28;20248;-89
2022/07/26 08:45:24;;;;;;;0.80;0.80;;;;;;;;;;5029074;28;20214;-90
2022/07/26 08:47:53;;;;;;;1.27;0.90;;;;;;;;;;5014865;28;20206;-89
2022/07/26 08:50:21;;;;;;;1.50;0.93;;;;;;;;;;5025672;28;20217;-90
2022/07/26 08:52:51;;;;;;;1.45;1.08;;;;;;;;;;5033721;28;20226;-90
2022/07/26 08:55:20;;;;;;;1.55;0.90;;;;;;;;;;5022775;28;20222;-90
2022/07/26 08:57:48;;;;;;;1.20;1.10;;;;;;;;;;5027151;28;20222;-90
2022/07/26 09:00:16;;;;;;;2.17;1.20;;;;;;;;;;5014708;28;20216;-89
2022/07/26 09:02:44;;;;;;;1.70;0.82;;;;;;;;;;5031417;28;20264;-89
2022/07/26 09:05:13;;;;;;;1.45;1.00;;;;;;;;;;5032931;28;20633;-89
2022/07/26 09:07:40;;;;;;;1.50;1.00;;;;;;;;;;5014757;28;20210;-88
2022/07/26 09:10:12;;;;;;;2.03;1.10;;;;;;;;;;5013271;28;20207;-91
2022/07/26 09:12:50;;;;;;;1.27;0.95;;;;;;;;;;5104298;22;20234;-89
2022/07/26 09:18:32;;;;;;;2.55;1.20;;;;;;;;;;4970782;28;20266;-89
2022/07/26 09:21:10;;;;;;;3.30;1.20;;;;;;;;;;4990427;28;20218;-89
2022/07/26 09:23:40;;;;;;;1.20;0.98;;;;;;;;;;4987588;28;20313;-89
2022/07/26 09:26:10;;;;;;;2.08;1.08;;;;;;;;;;4993369;28;20231;-89
2022/07/26 09:28:40;;;;;;;1.63;0.90;;;;;;;;;;4992919;28;20222;-89
2022/07/26 09:31:08;;;;;;;1.10;1.00;;;;;;;;;;4982614;28;20208;-88
2022/07/26 09:36:50;;;;;;;1.08;0.80;;;;;;;;;;4970788;28;20215;-88
2022/07/26 09:39:18;;;;;;;1.50;1.13;;;;;;;;;;4991868;28;20219;-87
2022/07/26 09:41:45;;;;;;;1.80;1.05;;;;;;;;;;4981881;28;20214;-89
2022/07/26 09:44:32;;;;;;;3.33;1.30;;;;;;;;;;4997988;28;20231;-89
2022/07/26 09:49:46;;;;;;;2.78;1.10;;;;;;;;;;4985246;28;20212;-88
2022/07/26 09:52:21;;;;;;;1.00;0.90;;;;;;;;;;4984183;28;20226;-90
2022/07/26 09:55:02;;;;;;;1.50;0.80;;;;;;;;;;4984299;28;20213;-89
2022/07/26 09:57:35;;;;;;;1.13;1.00;;;;;;;;;;4994484;28;20301;-90
2022/07/26 10:00:09;;;;;;;1.05;0.98;;;;;;;;;;4977886;28;20219;-90
2022/07/26 10:03:14;;;;;;;1.95;1.00;;;;;;;;;;4977833;28;20236;-88
2022/07/26 10:05:48;;;;;;;2.53;1.00;;;;;;;;;;4979646;28;20306;-89
2022/07/26 10:08:25;;;;;;;1.00;0.90;;;;;;;;;;4980709;28;20273;-90
2022/07/26 10:13:46;;;;;;;2.67;1.13;;;;;;;;;;4983366;28;20247;-89
2022/07/26 10:16:32;;;;;;;1.33;1.00;;;;;;;;;;4984433;28;20220;-90
2022/07/26 10:19:16;;;;;;;1.13;0.90;;;;;;;;;;4982682;28;20215;-87
2022/07/26 10:21:49;;;;;;;1.33;1.00;;;;;;;;;;4982689;28;20204;-86
2022/07/26 12:14:20;;;;;;;1.45;0.90;;;;;;;;;;5012096;28;20233;-88
2022/07/26 12:17:05;;;;;;;0.80;0.80;;;;;;;;;;5014346;28;20257;-89
2022/07/26 12:42:48;;;;;;;1.25;0.90;;;;;;;;;;5012846;28;20282;-85
2022/07/26 12:55:04;;;;;;;0.85;0.75;;;;;;;;;;4975229;28;20206;-86
2022/07/26 13:10:25;;;;;;;0.90;0.77;;;;;;;;;;4985768;28;20210;-88
2022/07/26 13:13:26;;;;;;;1.25;1.00;;;;;;;;;;4992699;28;20242;-88
2022/07/26 13:16:15;;;;;;;0.93;0.80;;;;;;;;;;4992460;28;20210;-89
2022/07/26 15:07:22;;;;;;;1.60;0.90;;;;;;;;;;4801607;29;20339;-82
2022/07/26 19:55:40;;;;;;;1.55;1.20;;;;;;;;;;5034879;28;20260;-86
2022/07/26 19:58:17;;;;;;;9.07;2.80;;;;;;;;;;5014100;28;20226;-85
2022/07/26 20:00:56;;;;;;;15.30;4.40;;;;;;;;;;5009666;28;20206;-85
2022/07/26 20:03:23;;;;;;;22.20;6.88;;;;;;;;;;5012070;28;20214;-82
2022/07/26 20:05:54;;;;;;;28.83;6.95;;;;;;;;;;5015118;28;20226;-79
2022/07/26 20:08:21;;;;;;;21.23;6.75;;;;;;;;;;5014301;28;20229;-81
2022/07/26 20:10:58;;;;;;;24.27;6.97;;;;;;;;;;5014058;28;20213;-80
2022/07/26 20:13:25;;;;;;;32.35;7.90;;;;;;;;;;5009799;28;20198;-80
2022/07/26 20:16:01;;;;;;;26.08;8.02;;;;;;;;;;5012092;28;20226;-80
2022/07/26 20:18:29;;;;;;;29.20;7.93;;;;;;;;;;5015408;28;20212;-82
2022/07/26 20:20:56;;;;;;;29.13;8.15;;;;;;;;;;5014615;28;20210;-81
2022/07/26 20:23:24;;;;;;;26.98;7.35;;;;;;;;;;5009810;28;20279;-82
2022/07/26 20:25:56;;;;;;;21.23;7.38;;;;;;;;;;5011044;28;20689;-81
2022/07/26 20:28:23;;;;;;;22.60;6.88;;;;;;;;;;5015456;28;20210;-80
2022/07/26 20:30:52;;;;;;;23.48;7.25;;;;;;;;;;5016184;28;20226;-81
2022/07/26 20:33:24;;;;;;;20.08;6.13;;;;;;;;;;5015562;28;20305;-81
2022/07/26 20:35:52;;;;;;;19.42;6.35;;;;;;;;;;5014372;28;20286;-81
2022/07/26 20:38:19;;;;;;;18.75;6.30;;;;;;;;;;5015750;28;20260;-80
2022/07/26 20:40:47;;;;;;;19.98;6.28;;;;;;;;;;5005412;28;20253;-80
2022/07/26 20:43:21;;;;;;;16.27;5.82;;;;;;;;;;5014820;28;20198;-80
2022/07/26 20:45:53;;;;;;;16.20;5.72;;;;;;;;;;5008687;28;20236;-83
2022/07/26 20:48:23;;;;;;;15.57;5.90;;;;;;;;;;5020172;28;20221;-83
2022/07/26 20:50:50;;;;;;;15.18;5.55;;;;;;;;;;5014045;28;20207;-83
2022/07/26 20:53:18;;;;;;;12.90;5.10;;;;;;;;;;5029133;28;20268;-83
2022/07/26 20:55:47;;;;;;;11.68;5.57;;;;;;;;;;5021192;28;20280;-82
2022/07/26 20:58:16;;;;;;;16.05;5.47;;;;;;;;;;5022336;28;20655;-83
2022/07/26 21:00:44;;;;;;;11.68;4.70;;;;;;;;;;5022734;28;20209;-83
2022/07/26 21:03:12;;;;;;;13.05;5.18;;;;;;;;;;5021001;28;20209;-83
2022/07/26 21:05:39;;;;;;;12.95;5.03;;;;;;;;;;5020534;28;20231;-83
2022/07/26 21:08:09;;;;;;;14.48;5.25;;;;;;;;;;5022584;28;20194;-83
2022/07/26 21:10:37;;;;;;;11.52;5.38;;;;;;;;;;5019565;28;20222;-83
2022/07/26 21:13:04;;;;;;;10.40;5.05;;;;;;;;;;5016460;28;20259;-82
2022/07/26 21:15:44;;;;;;;14.35;5.45;;;;;;;;;;5016799;28;20249;-85
2022/07/26 21:21:04;;;;;;;9.57;4.20;;;;;;;;;;4980536;28;20210;-88
2022/07/26 21:23:32;;;;;;;8.73;4.43;;;;;;;;;;4979538;28;20282;-88
2022/07/26 21:25:59;;;;;;;11.18;4.43;;;;;;;;;;4998035;28;20222;-87
2022/07/26 21:28:27;;;;;;;11.00;4.10;;;;;;;;;;4990600;28;20217;-85
2022/07/26 21:30:56;;;;;;;10.93;4.35;;;;;;;;;;4973719;28;20208;-88
2022/07/26 21:33:23;;;;;;;22.15;6.60;;;;;;;;;;4977792;28;20214;-88
2022/07/26 21:35:51;;;;;;;24.65;7.70;;;;;;;;;;4985145;28;20203;-87
2022/07/26 21:38:18;;;;;;;30.00;8.68;;;;;;;;;;4985910;28;20211;-87
2022/07/26 21:40:46;;;;;;;31.55;8.50;;;;;;;;;;4980914;28;20281;-88
2022/07/26 21:43:13;;;;;;;26.02;7.60;;;;;;;;;;4977133;28;20211;-87
2022/07/26 21:45:42;;;;;;;31.85;7.65;;;;;;;;;;4972890;28;20298;-88
2022/07/26 21:48:11;;;;;;;25.00;7.47;;;;;;;;;;4973366;28;20204;-88
2022/07/26 21:50:39;;;;;;;26.17;6.35;;;;;;;;;;4978214;28;20230;-88
2022/07/26 21:53:07;;;;;;;23.63;6.90;;;;;;;;;;4988108;28;20238;-88
2022/07/26 21:55:37;;;;;;;28.65;7.30;;;;;;;;;;4986213;28;20195;-87
2022/07/26 21:58:05;;;;;;;22.08;6.70;;;;;;;;;;4973621;28;20200;-87
2022/07/26 22:00:32;;;;;;;21.08;5.57;;;;;;;;;;4977521;28;20298;-86
2022/07/26 22:02:59;;;;;;;26.17;6.45;;;;;;;;;;4976588;28;20199;-87
2022/07/26 22:05:37;;;;;;;24.65;6.53;;;;;;;;;;4982287;28;20235;-87
2022/07/26 22:08:06;;;;;;;20.20;5.43;;;;;;;;;;4978359;28;20668;-87
2022/07/26 22:10:34;;;;;;;23.73;5.78;;;;;;;;;;4983491;28;20314;-87
2022/07/26 22:13:04;;;;;;;13.95;5.20;;;;;;;;;;4990861;28;20279;-87
2022/07/26 22:15:32;;;;;;;16.13;5.28;;;;;;;;;;4996094;28;20230;-87
2022/07/26 22:18:00;;;;;;;15.52;4.68;;;;;;;;;;4993049;28;20211;-87
2022/07/26 22:20:32;;;;;;;14.57;5.20;;;;;;;;;;4982870;28;20239;-87
2022/07/26 22:22:59;;;;;;;16.05;4.55;;;;;;;;;;4981574;28;20266;-87
2022/07/26 22:25:27;;;;;;;17.27;5.20;;;;;;;;;;4978422;28;20251;-87
2022/07/26 22:27:55;;;;;;;15.20;5.03;;;;;;;;;;4984194;28;20254;-87
2022/07/26 22:30:23;;;;;;;16.77;4.93;;;;;;;;;;4987635;28;20766;-87
2022/07/26 22:32:50;;;;;;;14.00;4.80;;;;;;;;;;4977954;28;20208;-87
2022/07/26 22:35:18;;;;;;;10.98;4.00;;;;;;;;;;4976699;28;20196;-87
2022/07/26 22:37:46;;;;;;;9.65;3.80;;;;;;;;;;4977404;28;20207;-87
2022/07/26 22:40:15;;;;;;;12.50;4.05;;;;;;;;;;4975976;28;20290;-87
2022/07/26 22:42:43;;;;;;;12.90;3.80;;;;;;;;;;4972749;28;20235;-87
2022/07/26 22:45:11;;;;;;;9.73;3.67;;;;;;;;;;4972380;28;20220;-87
2022/07/26 22:47:39;;;;;;;11.00;3.92;;;;;;;;;;4972321;28;20207;-87
2022/07/26 22:50:06;;;;;;;11.77;3.78;;;;;;;;;;4972632;28;20228;-88
2022/07/26 22:52:34;;;;;;;9.68;3.47;;;;;;;;;;4974821;28;20204;-87
2022/07/26 22:55:03;;;;;;;7.70;3.70;;;;;;;;;;4975176;28;20242;-87
2022/07/26 22:57:30;;;;;;;7.05;3.30;;;;;;;;;;4984158;28;20287;-87
2022/07/26 22:59:58;;;;;;;10.77;4.25;;;;;;;;;;4976725;28;20275;-87
2022/07/26 23:02:25;;;;;;;10.45;3.85;;;;;;;;;;4978621;28;20208;-87
2022/07/26 23:04:52;;;;;;;10.07;3.70;;;;;;;;;;4976366;28;20223;-87
2022/07/26 23:07:20;;;;;;;8.68;3.95;;;;;;;;;;4982433;28;20294;-87
2022/07/26 23:09:47;;;;;;;11.68;4.05;;;;;;;;;;4990918;28;20266;-87
2022/07/26 23:12:16;;;;;;;9.30;3.33;;;;;;;;;;4979789;28;20235;-87
2022/07/26 23:14:43;;;;;;;7.22;3.50;;;;;;;;;;4980565;28;20206;-87
2022/07/26 23:17:10;;;;;;;7.38;3.47;;;;;;;;;;4985335;28;20231;-86
2022/07/26 23:19:37;;;;;;;10.00;3.80;;;;;;;;;;4984141;28;20298;-87
2022/07/26 23:22:05;;;;;;;7.40;3.33;;;;;;;;;;4985089;28;20199;-88
2022/07/26 23:24:32;;;;;;;9.55;3.22;;;;;;;;;;4983433;28;20244;-87
2022/07/26 23:26:59;;;;;;;9.50;3.42;;;;;;;;;;4977266;28;20299;-87
2022/07/26 23:29:28;;;;;;;11.10;3.92;;;;;;;;;;4978724;28;20282;-88
2022/07/26 23:31:55;;;;;;;8.70;3.55;;;;;;;;;;4978875;28;20208;-88
2022/07/26 23:34:23;;;;;;;8.30;3.33;;;;;;;;;;4982317;28;20258;-88
2022/07/26 23:36:51;;;;;;;8.60;3.13;;;;;;;;;;4976038;28;20238;-87
2022/07/26 23:39:18;;;;;;;5.43;3.17;;;;;;;;;;4979136;28;20243;-88
2022/07/26 23:41:46;;;;;;;8.68;3.50;;;;;;;;;;4988764;28;20304;-88
2022/07/26 23:44:13;;;;;;;6.35;2.97;;;;;;;;;;4987782;28;20208;-88
2022/07/26 23:46:42;;;;;;;10.73;3.97;;;;;;;;;;4984504;28;20235;-87
2022/07/26 23:49:09;;;;;;;8.75;3.60;;;;;;;;;;4985531;28;20605;-88
2022/07/26 23:51:38;;;;;;;5.63;3.08;;;;;;;;;;4982672;28;20266;-87
2022/07/26 23:54:06;;;;;;;6.03;3.00;;;;;;;;;;4987591;28;20215;-88
2022/07/26 23:56:33;;;;;;;7.28;3.40;;;;;;;;;;4991874;28;20258;-87
2022/07/26 23:59:00;;;;;;;5.97;3.25;;;;;;;;;;4979467;28;20228;-88
